createdAt,value
2018-02-08T00:00:42.131Z,72.70
2018-02-08T00:03:10.660Z,77.20
2018-02-08T00:05:38.492Z,77.53
2018-02-08T00:08:06.256Z,72.15
2018-02-08T00:10:34.021Z,74.20
2018-02-08T00:13:01.837Z,70.75
2018-02-08T00:15:29.597Z,75.87
2018-02-08T00:17:57.350Z,77.78
2018-02-08T00:20:25.159Z,71.80
2018-02-08T00:22:53.683Z,71.12
2018-02-08T00:25:21.452Z,82.72
2018-02-08T00:27:49.268Z,74.28
2018-02-08T00:30:17.076Z,76.62
2018-02-08T00:32:44.834Z,82.43
2018-02-08T00:35:12.656Z,77.40
2018-02-08T00:37:40.419Z,75.82
2018-02-08T00:40:08.227Z,74.22
2018-02-08T00:42:36.808Z,80.10
2018-02-08T00:45:04.572Z,80.57
2018-02-08T00:47:32.339Z,75.30
2018-02-08T00:50:00.155Z,75.37
2018-02-08T00:52:27.911Z,78.78
2018-02-08T00:54:55.673Z,78.45
2018-02-08T00:57:23.534Z,73.60
2018-02-08T00:59:51.292Z,78.75
2018-02-08T01:02:19.816Z,76.10
2018-02-08T01:04:47.641Z,80.70
2018-02-08T01:07:15.399Z,82.82
2018-02-08T01:09:43.184Z,82.57
2018-02-08T01:12:10.995Z,79.62
2018-02-08T01:14:38.760Z,82.22
2018-02-08T01:17:06.518Z,88.47
2018-02-08T01:19:34.347Z,80.35
2018-02-08T01:22:02.104Z,85.80
2018-02-08T01:24:29.868Z,81.53
2018-02-08T01:26:57.688Z,84.28
2018-02-08T01:29:26.215Z,83.50
2018-02-08T01:31:53.975Z,81.03
2018-02-08T01:34:21.809Z,82.37
2018-02-08T01:36:49.573Z,87.05
2018-02-08T01:39:17.340Z,87.35
2018-02-08T01:41:45.172Z,87.25
2018-02-08T01:44:13.708Z,88.03
2018-02-08T01:46:41.476Z,87.78
2018-02-08T01:49:09.291Z,85.10
2018-02-08T01:51:37.812Z,90.80
2018-02-08T01:54:05.572Z,87.78
2018-02-08T01:56:33.392Z,85.93
2018-02-08T01:59:01.918Z,85.70
2018-02-08T02:01:29.683Z,88.03
2018-02-08T02:03:57.501Z,89.53
2018-02-08T02:06:25.274Z,89.00
2018-02-08T02:08:53.049Z,90.07
2018-02-08T02:11:20.876Z,84.00
2018-02-08T02:13:49.411Z,80.95
2018-02-08T02:16:17.179Z,97.72
2018-02-08T02:18:44.996Z,99.75
2018-02-08T02:21:12.763Z,107.95
2018-02-08T02:23:40.523Z,122.30
2018-02-08T02:26:08.344Z,120.95
2018-02-08T02:28:36.107Z,102.93
2018-02-08T02:31:03.892Z,104.18
2018-02-08T02:33:32.471Z,97.40
2018-02-08T02:36:01.005Z,95.15
2018-02-08T02:38:28.770Z,95.38
2018-02-08T02:40:56.588Z,92.30
2018-02-08T02:43:24.348Z,88.47
2018-02-08T02:45:52.113Z,89.32
2018-02-08T02:48:19.922Z,94.85
2018-02-08T02:50:47.685Z,89.15
2018-02-08T02:53:15.443Z,90.57
2018-02-08T02:55:43.266Z,95.25
2018-02-08T02:58:11.022Z,86.45
2018-02-08T03:00:38.808Z,84.18
2018-02-08T03:03:06.623Z,92.18
2018-02-08T03:05:34.387Z,93.78
2018-02-08T03:08:02.928Z,84.45
2018-02-08T03:10:30.752Z,91.15
2018-02-08T03:12:58.519Z,90.18
2018-02-08T03:15:26.283Z,85.60
2018-02-08T03:17:54.099Z,88.75
2018-02-08T03:20:21.863Z,88.45
2018-02-08T03:22:49.648Z,87.62
2018-02-08T03:25:18.229Z,87.43
2018-02-08T03:27:46.762Z,87.32
2018-02-08T03:30:14.567Z,85.65
2018-02-08T03:32:43.538Z,87.35
2018-02-08T03:35:11.312Z,90.90
2018-02-08T03:37:39.073Z,90.87
2018-02-08T03:40:06.887Z,88.95
2018-02-08T03:42:34.651Z,97.78
2018-02-08T03:45:02.416Z,91.57
2018-02-08T03:47:30.248Z,95.82
2018-02-08T03:49:58.024Z,100.10
2018-02-08T03:52:25.792Z,92.68
2018-02-08T03:54:53.608Z,92.28
2018-02-08T03:57:21.379Z,98.12
2018-02-08T03:59:49.908Z,93.85
2018-02-08T04:02:18.528Z,83.22
2018-02-08T04:04:46.291Z,92.97
2018-02-08T04:07:14.056Z,90.50
2018-02-08T04:09:41.876Z,86.03
2018-02-08T04:12:09.638Z,90.32
2018-02-08T04:14:37.406Z,92.28
2018-02-08T04:17:05.227Z,94.43
2018-02-08T04:19:33.011Z,84.95
2018-02-08T04:22:00.776Z,92.20
2018-02-08T04:24:28.610Z,84.87
2018-02-08T04:26:57.145Z,87.12
2018-02-08T04:29:24.911Z,89.37
2018-02-08T04:31:52.731Z,83.35
2018-02-08T04:34:20.499Z,88.93
2018-02-08T04:36:48.268Z,87.40
2018-02-08T04:39:28.053Z,92.00
2018-02-08T04:42:07.579Z,88.75
2018-02-08T04:44:47.143Z,84.65
2018-02-08T04:47:28.418Z,87.82
2018-02-08T04:49:57.007Z,89.20
2018-02-08T04:52:25.535Z,87.35
2018-02-08T04:54:53.310Z,85.32
2018-02-08T04:57:21.133Z,90.30
2018-02-08T04:59:48.910Z,84.78
2018-02-08T05:02:18.320Z,84.55
2018-02-08T05:04:46.138Z,85.70
2018-02-08T05:07:14.692Z,85.10
2018-02-08T05:09:42.462Z,82.62
2018-02-08T05:12:10.287Z,79.75
2018-02-08T05:14:38.058Z,80.68
2018-02-08T05:17:05.823Z,86.03
2018-02-08T05:19:33.646Z,82.15
2018-02-08T05:22:01.456Z,80.07
2018-02-08T05:24:29.232Z,76.80
2018-02-08T05:26:57.052Z,76.05
2018-02-08T05:29:24.819Z,83.87
2018-02-08T05:31:52.580Z,74.93
2018-02-08T05:34:20.394Z,75.32
2018-02-08T05:36:48.162Z,75.50
2018-02-08T05:39:16.692Z,76.53
2018-02-08T05:41:44.519Z,77.47
2018-02-08T05:44:13.052Z,84.18
2018-02-08T05:46:40.814Z,73.65
2018-02-08T05:49:08.635Z,74.85
2018-02-08T05:51:36.399Z,75.18
2018-02-08T05:54:04.191Z,76.28
2018-02-08T05:56:32.025Z,76.55
2018-02-08T05:58:59.791Z,76.85
2018-02-08T06:01:27.560Z,80.25
2018-02-08T06:03:55.386Z,81.10
2018-02-08T06:06:23.921Z,77.10
2018-02-08T06:08:51.683Z,75.72
2018-02-08T06:11:19.507Z,76.47
2018-02-08T06:13:47.277Z,74.65
2018-02-08T06:16:15.036Z,80.47
2018-02-08T06:18:42.867Z,74.28
2018-02-08T06:21:10.636Z,79.72
2018-02-08T06:23:39.192Z,82.43
2018-02-08T06:26:07.018Z,74.10
2018-02-08T06:28:34.784Z,73.47
2018-02-08T06:31:02.547Z,71.07
2018-02-08T06:33:30.756Z,71.20
2018-02-08T06:35:58.526Z,70.75
2018-02-08T06:38:26.293Z,70.80
2018-02-08T06:40:54.120Z,72.37
2018-02-08T06:43:21.947Z,72.28
2018-02-08T06:45:49.707Z,75.22
2018-02-08T06:48:17.529Z,72.43
2018-02-08T06:50:45.295Z,72.60
2018-02-08T06:53:13.062Z,66.47
2018-02-08T06:55:41.128Z,71.60
2018-02-08T06:58:08.892Z,74.43
2018-02-08T07:00:36.657Z,72.68
2018-02-08T07:03:04.480Z,73.65
2018-02-08T07:05:32.251Z,75.05
2018-02-08T07:08:00.027Z,69.72
2018-02-08T07:10:27.854Z,73.25
2018-02-08T07:12:55.618Z,71.32
2018-02-08T07:15:23.384Z,72.90
2018-02-08T07:17:51.199Z,73.95
2018-02-08T07:20:18.965Z,74.40
2018-02-08T07:22:47.507Z,71.70
2018-02-08T07:25:16.131Z,77.40
2018-02-08T07:27:44.704Z,73.53
2018-02-08T07:30:13.237Z,66.43
2018-02-08T07:32:41.060Z,69.72
2018-02-08T07:35:09.599Z,71.47
2018-02-08T07:37:37.384Z,69.43
2018-02-08T07:40:05.196Z,70.50
2018-02-08T07:42:32.956Z,70.68
2018-02-08T07:45:00.715Z,66.28
2018-02-08T07:47:28.523Z,71.55
2018-02-08T07:49:56.282Z,66.43
2018-02-08T07:52:24.042Z,62.35
2018-02-08T07:54:51.864Z,60.80
2018-02-08T07:57:19.624Z,55.90
2018-02-08T07:59:47.382Z,62.75
2018-02-08T08:02:15.192Z,65.28
2018-02-08T08:04:42.950Z,60.58
2018-02-08T08:07:10.712Z,63.30
2018-02-08T08:09:38.576Z,63.92
2018-02-08T08:12:06.332Z,60.92
2018-02-08T08:14:34.093Z,62.70
2018-02-08T08:17:01.902Z,61.58
2018-02-08T08:19:30.442Z,56.15
2018-02-08T08:21:58.217Z,57.38
2018-02-08T08:24:26.031Z,59.13
2018-02-08T08:26:53.807Z,55.10
2018-02-08T08:29:21.572Z,59.88
2018-02-08T08:31:49.383Z,62.70
2018-02-08T08:34:17.916Z,64.03
2018-02-08T08:36:45.671Z,59.45
2018-02-08T08:39:13.479Z,62.88
2018-02-08T08:41:42.004Z,59.35
2018-02-08T08:44:09.764Z,62.78
2018-02-08T08:46:37.572Z,66.90
2018-02-08T08:49:05.333Z,59.28
2018-02-08T08:51:33.103Z,56.90
2018-02-08T08:54:00.915Z,58.87
2018-02-08T08:56:28.666Z,59.15
2018-02-08T08:58:56.426Z,56.08
2018-02-08T09:01:24.241Z,60.65
2018-02-08T09:03:52.012Z,58.03
2018-02-08T09:06:19.775Z,57.38
2018-02-08T09:08:47.583Z,62.35
2018-02-08T09:11:15.335Z,57.00
2018-02-08T09:13:43.087Z,63.72
2018-02-08T09:16:10.948Z,62.03
2018-02-08T09:18:38.703Z,61.95
2018-02-08T09:21:07.225Z,57.10
2018-02-08T09:23:35.077Z,58.28
2018-02-08T09:26:02.867Z,57.05
2018-02-08T09:28:30.619Z,55.30
2018-02-08T09:30:58.443Z,60.97
2018-02-08T09:33:26.232Z,58.10
2018-02-08T09:35:53.994Z,59.00
2018-02-08T09:38:21.803Z,56.03
2018-02-08T09:40:49.564Z,56.88
2018-02-08T09:43:17.318Z,54.47
2018-02-08T09:45:45.132Z,56.45
2018-02-08T09:48:12.892Z,51.08
2018-02-08T09:50:40.648Z,50.45
2018-02-08T09:53:08.481Z,52.00
2018-02-08T09:55:37.007Z,51.83
2018-02-08T09:58:04.762Z,49.42
2018-02-08T10:00:32.578Z,49.40
2018-02-08T10:03:00.339Z,46.10
2018-02-08T10:05:28.095Z,45.05
2018-02-08T10:07:55.913Z,47.95
2018-02-08T10:10:23.675Z,46.55
2018-02-08T10:12:51.437Z,50.47
2018-02-08T10:15:19.306Z,48.22
2018-02-08T10:17:47.067Z,47.00
2018-02-08T10:20:14.820Z,47.92
2018-02-08T10:22:42.627Z,45.40
2018-02-08T10:25:10.395Z,41.03
2018-02-08T10:27:38.153Z,42.88
2018-02-08T10:30:05.975Z,43.87
2018-02-08T10:32:33.731Z,39.90
2018-02-08T10:35:01.488Z,39.67
2018-02-08T10:37:29.306Z,35.97
2018-02-08T10:39:57.100Z,37.53
2018-02-08T10:42:24.897Z,38.00
2018-02-08T10:44:52.735Z,39.85
2018-02-08T10:47:20.502Z,37.38
2018-02-08T10:49:48.263Z,37.72
2018-02-08T10:52:16.121Z,35.80
2018-02-08T10:54:43.888Z,35.72
2018-02-08T10:57:11.659Z,35.78
2018-02-08T10:59:39.468Z,35.22
2018-02-08T11:02:07.230Z,26.90
2018-02-08T11:04:34.988Z,26.65
2018-02-08T11:07:02.797Z,30.95
2018-02-08T11:09:30.564Z,26.02
2018-02-08T11:11:58.332Z,21.48
2018-02-08T11:14:26.157Z,23.42
2018-02-08T11:16:54.682Z,22.45
2018-02-08T11:19:22.457Z,20.67
2018-02-08T11:21:50.279Z,22.45
2018-02-08T11:24:18.044Z,28.85
2018-02-08T11:26:45.804Z,28.83
2018-02-08T11:29:13.632Z,26.62
2018-02-08T11:31:41.387Z,28.33
2018-02-08T11:34:09.146Z,27.80
2018-02-08T11:36:36.984Z,30.58
2018-02-08T11:39:04.780Z,31.10
2018-02-08T11:41:32.547Z,27.67
2018-02-08T11:44:01.135Z,29.35
2018-02-08T11:46:29.660Z,24.77
2018-02-08T11:48:57.432Z,29.87
2018-02-08T11:51:25.255Z,27.73
2018-02-08T11:53:53.770Z,32.42
2018-02-08T11:56:21.527Z,26.48
2018-02-08T11:58:49.347Z,30.00
2018-02-08T12:01:17.876Z,29.17
2018-02-08T12:03:45.645Z,32.63
2018-02-08T12:06:13.453Z,32.47
2018-02-08T12:08:41.988Z,33.28
2018-02-08T12:11:09.751Z,34.10
2018-02-08T12:13:38.332Z,33.60
2018-02-08T12:16:06.089Z,39.22
2018-02-08T12:18:33.842Z,43.38
2018-02-08T12:21:01.672Z,38.33
2018-02-08T12:23:29.430Z,39.08
2018-02-08T12:25:57.959Z,35.92
2018-02-08T12:28:26.542Z,35.88
2018-02-08T12:30:54.354Z,35.50
2018-02-08T12:33:22.112Z,36.70
2018-02-08T12:35:50.683Z,35.50
2018-02-08T12:38:19.217Z,33.95
2018-02-08T12:40:46.987Z,33.78
2018-02-08T12:43:14.803Z,35.15
2018-02-08T12:45:42.569Z,32.38
2018-02-08T12:48:10.324Z,25.62
2018-02-08T12:50:38.140Z,29.48
2018-02-08T12:53:05.916Z,29.83
2018-02-08T12:55:33.682Z,31.25
2018-02-08T12:58:01.492Z,26.05
2018-02-08T13:00:29.244Z,23.33
2018-02-08T13:02:57.065Z,25.15
2018-02-08T13:05:24.878Z,27.95
2018-02-08T13:07:52.640Z,26.77
2018-02-08T13:10:20.398Z,27.23
2018-02-08T13:12:48.272Z,28.75
2018-02-08T13:15:16.028Z,30.00
2018-02-08T13:17:43.796Z,24.80
2018-02-08T13:20:12.492Z,34.30
2018-02-08T13:22:40.256Z,30.00
2018-02-08T13:25:08.019Z,23.65
2018-02-08T13:27:35.844Z,28.45
2018-02-08T13:30:04.256Z,26.65
2018-02-08T13:32:32.033Z,24.67
2018-02-08T13:34:59.851Z,30.95
2018-02-08T13:37:27.625Z,28.00
2018-02-08T13:39:55.408Z,27.33
2018-02-08T13:42:33.151Z,29.50
2018-02-08T13:45:01.711Z,26.90
2018-02-08T13:47:31.326Z,28.17
2018-02-08T14:03:29.371Z,31.55
2018-02-08T14:05:57.915Z,33.17
2018-02-08T14:08:26.444Z,32.70
2018-02-08T14:10:55.023Z,30.45
2018-02-08T14:13:23.547Z,33.33
2018-02-08T14:15:51.308Z,32.80
2018-02-08T14:18:19.121Z,34.47
2018-02-08T14:20:47.648Z,32.03
2018-02-08T14:23:15.416Z,36.15
2018-02-08T14:25:43.247Z,35.75
2018-02-08T14:28:11.019Z,33.88
2018-02-08T14:30:38.782Z,33.10
2018-02-08T14:33:06.600Z,32.67
2018-02-08T14:35:34.362Z,31.05
2018-02-08T14:38:02.125Z,30.35
2018-02-08T14:40:29.941Z,35.25
2018-02-08T14:42:57.699Z,31.00
2018-02-08T14:45:25.457Z,31.50
2018-02-08T14:47:53.271Z,31.17
2018-02-08T14:50:21.035Z,35.00
2018-02-08T14:52:48.799Z,29.63
2018-02-08T14:55:16.620Z,35.50
2018-02-08T14:57:44.376Z,34.13
2018-02-08T15:00:12.139Z,32.25
2018-02-08T15:02:39.962Z,36.72
2018-02-08T15:05:08.488Z,35.47
2018-02-08T15:07:36.244Z,33.10
2018-02-08T15:10:04.092Z,34.03
2018-02-08T15:12:31.889Z,35.13
2018-02-08T15:15:00.424Z,32.95
2018-02-08T15:17:28.248Z,33.05
2018-02-08T15:19:56.008Z,32.08
2018-02-08T15:22:23.764Z,33.50
2018-02-08T15:24:51.587Z,32.30
2018-02-08T15:27:19.340Z,33.95
2018-02-08T15:29:47.097Z,32.72
2018-02-08T15:32:14.924Z,34.75
2018-02-08T15:34:42.676Z,34.47
2018-02-08T15:37:10.431Z,32.90
2018-02-08T15:39:38.277Z,36.47
2018-02-08T15:42:06.047Z,36.00
2018-02-08T15:44:33.799Z,35.70
2018-02-08T15:47:01.640Z,37.35
2018-02-08T15:49:29.391Z,37.05
2018-02-08T15:51:57.200Z,36.42
2018-02-08T15:54:25.018Z,39.90
2018-02-08T15:56:52.768Z,40.60
2018-02-08T15:59:21.291Z,41.35
2018-02-08T16:01:49.099Z,45.20
2018-02-08T16:04:17.651Z,38.30
2018-02-08T16:06:46.185Z,38.15
2018-02-08T16:09:14.004Z,42.10
2018-02-08T16:11:41.764Z,44.40
2018-02-08T16:14:09.540Z,41.97
2018-02-08T16:16:37.363Z,43.55
2018-02-08T16:19:05.128Z,41.03
2018-02-08T16:21:32.903Z,43.75
2018-02-08T16:24:00.726Z,47.50
2018-02-08T16:26:28.513Z,46.47
2018-02-08T16:28:56.284Z,46.90
2018-02-08T16:31:24.127Z,43.75
2018-02-08T16:33:51.900Z,46.65
2018-02-08T16:36:19.677Z,47.97
2018-02-08T16:38:47.503Z,49.65
2018-02-08T16:41:15.291Z,50.65
2018-02-08T16:43:43.113Z,47.05
2018-02-08T16:46:10.957Z,50.12
2018-02-08T16:48:39.501Z,50.70
2018-02-08T16:51:07.272Z,52.60
2018-02-08T16:53:35.095Z,51.72
2018-02-08T16:56:02.871Z,49.38
2018-02-08T16:58:30.635Z,50.90
2018-02-08T17:00:58.466Z,53.22
2018-02-08T17:03:26.996Z,52.30
2018-02-08T17:05:54.760Z,53.65
2018-02-08T17:08:22.639Z,59.20
2018-02-08T17:10:50.453Z,52.70
2018-02-08T17:13:18.233Z,55.15
2018-02-08T17:15:46.067Z,54.60
2018-02-08T17:18:13.889Z,63.33
2018-02-08T17:20:41.665Z,59.67
2018-02-08T17:23:09.488Z,61.15
2018-02-08T17:25:37.262Z,57.55
2018-02-08T17:28:05.030Z,62.45
2018-02-08T17:30:32.844Z,63.50
2018-02-08T17:33:00.623Z,63.38
2018-02-08T17:35:28.390Z,58.05
2018-02-08T17:38:04.175Z,61.28
2018-02-08T17:40:31.939Z,66.50
2018-02-08T17:42:59.732Z,60.58
2018-02-08T17:45:27.551Z,63.20
2018-02-08T17:47:56.089Z,63.50
2018-02-08T17:50:23.851Z,62.78
2018-02-08T17:52:51.664Z,60.95
2018-02-08T17:55:19.437Z,67.40
2018-02-08T17:57:47.205Z,56.88
2018-02-08T18:00:15.043Z,60.45
2018-02-08T18:02:42.823Z,62.47
2018-02-08T18:05:10.589Z,59.20
2018-02-08T18:07:38.423Z,56.10
2018-02-08T18:10:07.008Z,59.53
2018-02-08T18:12:34.768Z,59.88
2018-02-08T18:15:02.599Z,56.83
2018-02-08T18:17:30.383Z,62.20
2018-02-08T18:19:58.148Z,62.42
2018-02-08T18:22:25.972Z,60.85
2018-02-08T18:24:53.741Z,57.50
2018-02-08T18:27:21.521Z,62.92
2018-02-08T18:29:49.381Z,64.43
2018-02-08T18:32:17.175Z,62.35
2018-02-08T18:34:44.953Z,69.50
2018-02-08T18:37:12.773Z,65.50
2018-02-08T18:39:40.548Z,68.40
2018-02-08T18:42:08.339Z,69.47
2018-02-08T18:44:36.158Z,64.32
2018-02-08T18:47:03.928Z,71.07
2018-02-08T18:49:31.698Z,71.70
2018-02-08T18:51:59.527Z,69.95
2018-02-08T18:54:27.336Z,68.85
2018-02-08T18:56:55.103Z,69.10
2018-02-08T18:59:22.928Z,73.45
2018-02-08T19:01:50.701Z,74.50
2018-02-08T19:04:18.476Z,73.35
2018-02-08T19:06:46.296Z,81.00
2018-02-08T19:09:14.065Z,71.82
2018-02-08T19:11:41.859Z,70.53
2018-02-08T19:14:09.851Z,74.55
2018-02-08T19:16:37.623Z,72.53
2018-02-08T19:19:05.394Z,74.57
2018-02-08T19:21:34.136Z,72.65
2018-02-08T19:24:01.913Z,80.60
2018-02-08T19:26:29.703Z,74.82
2018-02-08T19:28:58.324Z,75.90
2018-02-08T19:31:26.091Z,76.50
2018-02-08T19:33:53.854Z,83.10
2018-02-08T19:36:21.678Z,78.95
2018-02-08T19:38:50.207Z,83.45
2018-02-08T19:41:17.991Z,81.43
2018-02-08T19:43:45.823Z,80.68
2018-02-08T19:46:13.592Z,81.87
2018-02-08T19:48:41.373Z,82.60
2018-02-08T19:51:09.190Z,86.63
2018-02-08T19:53:36.973Z,87.45
2018-02-08T19:56:04.783Z,90.82
2018-02-08T19:58:32.606Z,92.07
2018-02-08T20:01:00.373Z,93.45
2018-02-08T20:03:28.140Z,93.20
2018-02-08T20:05:55.962Z,95.03
2018-02-08T20:08:23.729Z,101.28
2018-02-08T20:10:51.490Z,98.87
2018-02-08T20:13:19.327Z,90.62
2018-02-08T20:15:47.893Z,94.93
2018-02-08T20:18:15.668Z,100.47
2018-02-08T20:20:44.259Z,94.30
2018-02-08T20:23:12.793Z,96.22
2018-02-08T20:25:44.556Z,99.78
2018-02-08T20:28:12.343Z,95.85
2018-02-08T20:30:40.967Z,94.20
2018-02-08T20:33:08.819Z,97.30
2018-02-08T20:35:36.595Z,99.18
2018-02-08T20:38:04.378Z,93.70
2018-02-08T20:40:32.232Z,105.00
2018-02-08T20:43:05.582Z,103.03
2018-02-08T20:45:34.225Z,105.12
2018-02-08T20:48:01.997Z,104.47
2018-02-08T20:50:29.772Z,100.82
2018-02-08T20:52:57.607Z,103.03
2018-02-08T20:55:25.378Z,97.57
2018-02-08T20:57:53.206Z,97.15
2018-02-08T21:00:21.024Z,101.25
2018-02-08T21:02:48.788Z,97.15
2018-02-08T21:05:16.556Z,104.12
2018-02-08T21:07:45.143Z,107.20
2018-02-08T21:10:13.676Z,100.25
2018-02-08T21:12:41.439Z,102.20
2018-02-08T21:15:10.033Z,98.90
2018-02-08T21:17:37.808Z,101.47
2018-02-08T21:20:05.620Z,95.65
2018-02-08T21:22:33.504Z,105.53
2018-02-08T21:25:02.048Z,98.78
2018-02-08T21:27:29.821Z,103.57
2018-02-08T21:29:57.640Z,99.15
2018-02-08T21:32:26.183Z,103.93
2018-02-08T21:34:53.957Z,100.05
2018-02-08T21:37:21.780Z,106.55
2018-02-08T21:39:49.548Z,103.35
2018-02-08T21:42:17.323Z,97.40
2018-02-08T21:44:45.143Z,106.25
2018-02-08T21:47:12.913Z,105.45
2018-02-08T21:49:41.464Z,103.43
2018-02-08T21:52:09.288Z,97.45
2018-02-08T21:54:37.122Z,108.43
2018-02-08T21:57:05.658Z,100.53
2018-02-08T21:59:33.476Z,101.03
2018-02-08T22:02:01.240Z,103.22
2018-02-08T22:04:29.020Z,101.55
2018-02-08T22:06:56.842Z,98.55
2018-02-08T22:09:25.383Z,108.45
2018-02-08T22:11:53.154Z,102.85
2018-02-08T22:14:20.983Z,109.00
2018-02-08T22:16:48.749Z,105.47
2018-02-08T22:19:16.516Z,103.93
2018-02-08T22:21:44.340Z,99.43
2018-02-08T22:24:12.887Z,103.32
2018-02-08T22:26:40.699Z,109.28
2018-02-08T22:29:08.521Z,112.95
2018-02-08T22:31:36.289Z,104.90
2018-02-08T22:34:04.064Z,111.95
2018-02-08T22:36:32.646Z,118.13
2018-02-08T22:39:01.188Z,122.22
2018-02-08T22:41:28.951Z,114.03
2018-02-08T22:43:56.776Z,119.07
2018-02-08T22:46:24.550Z,126.47
2018-02-08T22:48:52.315Z,123.32
2018-02-08T22:51:20.148Z,131.27
2018-02-08T22:53:48.690Z,118.97
2018-02-08T22:56:16.469Z,123.80
2018-02-08T22:58:44.287Z,125.95
2018-02-08T23:01:12.060Z,119.30
2018-02-08T23:03:39.827Z,116.90
2018-02-08T23:06:07.668Z,118.13
2018-02-08T23:08:35.435Z,115.15
2018-02-08T23:11:03.191Z,118.93
2018-02-08T23:13:31.007Z,124.20
2018-02-08T23:15:58.767Z,127.30
2018-02-08T23:18:26.538Z,120.57
2018-02-08T23:20:55.123Z,125.95
2018-02-08T23:23:23.656Z,137.60
2018-02-08T23:25:51.428Z,137.77
2018-02-08T23:28:20.011Z,126.65
2018-02-08T23:30:47.779Z,128.48
2018-02-08T23:33:15.547Z,125.32
2018-02-08T23:35:43.379Z,119.90
2018-02-08T23:38:11.157Z,125.72
2018-02-08T23:40:38.923Z,122.10
2018-02-08T23:43:06.752Z,119.65
2018-02-08T23:45:34.527Z,128.82
2018-02-08T23:48:02.301Z,126.68
2018-02-08T23:50:30.126Z,128.20
2018-02-08T23:52:57.907Z,139.52
2018-02-08T23:55:25.675Z,132.20
2018-02-08T23:57:53.502Z,139.77
